createdAt,value
2022-09-06T00:02:20.334Z,1.40
2022-09-06T00:04:48.564Z,1.65
2022-09-06T00:07:15.671Z,1.13
2022-09-06T00:09:42.833Z,1.10
2022-09-06T00:12:09.954Z,1.60
2022-09-06T00:14:37.056Z,1.52
2022-09-06T00:17:04.196Z,1.05
2022-09-06T00:19:31.296Z,1.35
2022-09-06T00:21:58.432Z,1.20
2022-09-06T00:24:25.544Z,1.00
2022-09-06T00:26:52.675Z,1.00
2022-09-06T00:29:19.815Z,1.10
2022-09-06T00:31:46.914Z,1.02
2022-09-06T00:34:14.036Z,0.95
2022-09-06T00:36:41.218Z,1.10
2022-09-06T00:39:08.320Z,1.30
2022-09-06T00:41:35.414Z,1.40
2022-09-06T00:44:02.689Z,1.20
2022-09-06T00:46:31.151Z,1.20
2022-09-06T00:49:05.351Z,0.80
2022-09-06T00:51:33.938Z,0.90
2022-09-06T00:54:05.876Z,0.80
2022-09-06T00:56:39.953Z,1.23
2022-09-06T00:59:07.369Z,1.10
2022-09-06T01:01:34.629Z,1.13
2022-09-06T01:04:02.590Z,1.30
2022-09-06T01:06:44.207Z,1.17
2022-09-06T01:09:34.298Z,0.90
2022-09-06T01:12:07.235Z,1.30
2022-09-06T01:14:52.338Z,0.95
2022-09-06T01:17:34.624Z,1.08
2022-09-06T01:20:20.200Z,0.98
2022-09-06T01:25:42.940Z,1.00
2022-09-06T01:28:39.589Z,1.20
2022-09-06T01:31:32.034Z,0.98
2022-09-06T01:34:08.113Z,1.00
2022-09-06T01:37:13.693Z,1.02
2022-09-06T01:39:41.911Z,0.88
2022-09-06T01:42:20.902Z,0.88
2022-09-06T01:45:15.227Z,1.10
2022-09-06T01:47:45.177Z,0.93
2022-09-06T01:50:30.659Z,1.20
2022-09-06T01:53:34.966Z,0.88
2022-09-06T01:56:08.593Z,0.75
2022-09-06T01:58:41.751Z,1.00
2022-09-06T02:01:23.679Z,1.10
2022-09-06T02:04:24.828Z,1.23
2022-09-06T02:07:00.394Z,1.20
2022-09-06T02:11:57.851Z,1.00
2022-09-06T02:14:35.355Z,1.20
2022-09-06T02:17:04.071Z,1.20
2022-09-06T02:19:37.767Z,1.10
2022-09-06T02:22:08.015Z,1.05
2022-09-06T02:24:37.133Z,0.82
2022-09-06T02:27:04.454Z,1.20
2022-09-06T02:29:31.602Z,0.95
2022-09-06T02:32:03.658Z,0.98
2022-09-06T02:34:30.829Z,1.10
2022-09-06T02:36:58.026Z,0.95
2022-09-06T02:39:25.183Z,1.23
2022-09-06T02:41:52.475Z,1.10
2022-09-06T02:44:20.019Z,1.05
2022-09-06T02:46:47.124Z,0.88
2022-09-06T02:49:14.233Z,1.20
2022-09-06T02:51:41.361Z,1.15
2022-09-06T02:54:08.980Z,1.10
2022-09-06T02:56:36.631Z,1.27
2022-09-06T02:59:07.058Z,1.20
2022-09-06T03:01:34.707Z,1.13
2022-09-06T03:04:02.202Z,1.10
2022-09-06T03:06:30.892Z,1.30
2022-09-06T03:08:59.932Z,1.15
2022-09-06T03:11:27.732Z,1.23
2022-09-06T03:13:54.899Z,1.10
2022-09-06T03:16:22.634Z,1.17
2022-09-06T03:18:49.784Z,0.80
2022-09-06T03:21:16.915Z,1.20
2022-09-06T03:23:45.039Z,1.08
2022-09-06T03:26:12.169Z,1.20
2022-09-06T03:28:39.530Z,1.10
2022-09-06T03:31:06.719Z,1.30
2022-09-06T03:33:34.007Z,0.90
2022-09-06T03:36:03.040Z,1.30
2022-09-06T03:38:30.202Z,1.13
2022-09-06T03:40:57.626Z,1.02
2022-09-06T03:43:25.875Z,1.00
2022-09-06T03:45:55.425Z,1.08
2022-09-06T03:48:24.273Z,1.33
2022-09-06T03:50:54.262Z,1.23
2022-09-06T03:53:22.359Z,0.82
2022-09-06T03:55:52.092Z,1.10
2022-09-06T03:58:21.065Z,1.40
2022-09-06T04:00:48.352Z,1.48
2022-09-06T04:03:15.682Z,1.20
2022-09-06T04:05:46.471Z,1.00
2022-09-06T04:08:13.666Z,1.40
2022-09-06T04:10:40.993Z,0.95
2022-09-06T04:13:08.101Z,1.08
2022-09-06T04:15:35.228Z,1.13
2022-09-06T04:18:07.195Z,1.00
2022-09-06T04:20:36.355Z,1.33
2022-09-06T04:23:04.043Z,1.20
2022-09-06T04:25:31.443Z,1.05
2022-09-06T04:27:58.959Z,1.00
2022-09-06T04:30:26.055Z,1.30
2022-09-06T04:32:53.171Z,1.63
2022-09-06T04:35:20.324Z,1.00
2022-09-06T04:37:47.516Z,1.50
2022-09-06T04:40:14.953Z,1.05
2022-09-06T04:42:42.115Z,1.70
2022-09-06T04:45:09.704Z,1.63
2022-09-06T04:47:36.868Z,1.50
2022-09-06T04:50:04.379Z,1.38
2022-09-06T04:52:31.499Z,1.25
2022-09-06T04:54:58.742Z,1.42
2022-09-06T04:57:25.897Z,1.30
2022-09-06T04:59:53.026Z,0.90
2022-09-06T05:02:20.373Z,1.73
2022-09-06T05:04:47.549Z,1.50
2022-09-06T05:07:14.733Z,1.10
2022-09-06T05:09:41.835Z,1.30
2022-09-06T05:12:09.132Z,0.90
2022-09-06T05:14:36.325Z,1.48
2022-09-06T05:17:03.512Z,1.05
2022-09-06T05:19:30.965Z,1.00
2022-09-06T05:21:58.210Z,1.27
2022-09-06T05:24:25.340Z,1.23
2022-09-06T05:26:52.435Z,1.52
2022-09-06T05:29:19.545Z,1.38
2022-09-06T05:31:46.736Z,1.20
2022-09-06T05:34:15.055Z,1.25
2022-09-06T05:36:42.225Z,1.30
2022-09-06T05:39:09.455Z,1.30
2022-09-06T05:41:36.727Z,1.40
2022-09-06T05:44:04.366Z,1.40
2022-09-06T05:46:31.495Z,1.23
2022-09-06T05:49:04.720Z,1.30
2022-09-06T05:51:32.740Z,1.75
2022-09-06T05:53:59.876Z,1.10
2022-09-06T05:56:27.024Z,1.60
2022-09-06T05:58:54.112Z,1.42
2022-09-06T06:01:23.812Z,1.42
2022-09-06T06:03:52.615Z,1.30
2022-09-06T06:06:20.592Z,1.30
2022-09-06T06:08:47.954Z,1.27
2022-09-06T06:11:15.237Z,1.33
2022-09-06T06:13:43.215Z,1.08
2022-09-06T06:16:12.715Z,1.40
2022-09-06T06:18:40.448Z,1.17
2022-09-06T06:21:14.669Z,1.20
2022-09-06T06:23:43.545Z,1.20
2022-09-06T06:26:12.083Z,1.33
2022-09-06T06:28:40.781Z,1.35
2022-09-06T06:31:09.267Z,1.40
2022-09-06T06:33:36.490Z,1.23
2022-09-06T06:36:13.325Z,1.40
2022-09-06T06:38:42.961Z,1.70
2022-09-06T06:41:12.110Z,1.30
2022-09-06T06:43:39.205Z,1.30
2022-09-06T06:46:10.813Z,1.42
2022-09-06T06:48:42.054Z,1.20
2022-09-06T06:51:13.915Z,1.58
2022-09-06T06:53:41.394Z,1.13
2022-09-06T06:56:25.035Z,1.10
2022-09-06T06:58:54.051Z,1.45
2022-09-06T07:01:22.334Z,1.33
2022-09-06T07:03:49.837Z,1.35
2022-09-06T07:06:17.727Z,1.60
2022-09-06T07:08:45.472Z,1.50
2022-09-06T07:11:14.490Z,1.60
2022-09-06T07:13:41.802Z,1.70
2022-09-06T07:16:13.459Z,1.65
2022-09-06T07:18:45.695Z,1.60
2022-09-06T07:24:05.410Z,1.50
2022-09-06T07:26:33.144Z,1.42
2022-09-06T07:29:02.719Z,1.85
2022-09-06T07:34:18.448Z,1.83
2022-09-06T07:36:45.561Z,1.48
2022-09-06T07:39:12.677Z,1.65
2022-09-06T07:41:39.871Z,1.70
2022-09-06T07:44:07.030Z,1.77
2022-09-06T07:46:34.554Z,1.50
2022-09-06T07:49:04.728Z,1.90
2022-09-06T07:51:32.494Z,1.60
2022-09-06T07:54:26.159Z,1.85
2022-09-06T07:56:47.066Z,1.83
2022-09-06T07:59:14.544Z,2.28
2022-09-06T08:01:42.050Z,1.90
2022-09-06T08:04:12.808Z,1.70
2022-09-06T08:09:32.860Z,1.73
2022-09-06T08:12:01.155Z,1.80
2022-09-06T08:14:28.621Z,1.60
2022-09-06T08:16:56.070Z,2.28
2022-09-06T08:19:23.365Z,1.83
2022-09-06T08:21:55.494Z,1.58
2022-09-06T08:24:22.858Z,1.50
2022-09-06T08:26:50.277Z,1.80
2022-09-06T08:29:18.856Z,2.25
2022-09-06T08:31:46.421Z,1.75
2022-09-06T08:34:14.363Z,2.13
2022-09-06T08:36:42.225Z,1.58
2022-09-06T08:39:10.089Z,1.92
2022-09-06T08:42:03.679Z,2.58
2022-09-06T08:44:56.055Z,2.10
2022-09-06T08:47:24.175Z,2.30
2022-09-06T08:49:54.896Z,1.88
2022-09-06T08:53:13.169Z,2.00
2022-09-06T08:55:42.878Z,1.95
2022-09-06T09:00:58.395Z,1.85
2022-09-06T09:03:33.410Z,2.20
2022-09-06T09:06:03.449Z,2.25
2022-09-06T09:08:52.626Z,3.47
2022-09-06T09:11:21.808Z,1.63
2022-09-06T09:13:59.557Z,1.85
2022-09-06T09:16:27.254Z,2.20
2022-09-06T09:18:56.714Z,2.20
2022-09-06T09:21:30.169Z,2.22
2022-09-06T09:24:07.504Z,2.10
2022-09-06T09:26:56.955Z,1.75
2022-09-06T09:29:28.047Z,1.98
2022-09-06T09:31:57.262Z,2.05
2022-09-06T09:34:33.887Z,2.22
2022-09-06T09:40:30.067Z,2.40
2022-09-06T09:43:09.456Z,2.28
2022-09-06T09:45:36.552Z,1.98
2022-09-06T09:48:20.572Z,2.30
2022-09-06T09:50:47.878Z,2.80
2022-09-06T09:53:18.709Z,2.65
2022-09-06T09:55:46.925Z,2.45
2022-09-06T09:58:30.759Z,2.15
2022-09-06T10:01:12.398Z,2.15
2022-09-06T10:09:23.162Z,2.25
2022-09-06T10:11:56.796Z,2.22
2022-09-06T10:14:33.070Z,2.10
2022-09-06T10:17:00.750Z,2.70
2022-09-06T10:19:42.490Z,2.72
2022-09-06T10:22:27.901Z,2.45
2022-09-06T10:25:13.373Z,2.80
2022-09-06T10:28:10.326Z,2.55
2022-09-06T10:31:06.317Z,2.40
2022-09-06T10:33:39.504Z,2.20
2022-09-06T10:36:07.023Z,2.05
2022-09-06T10:39:03.516Z,3.00
2022-09-06T10:41:58.299Z,2.65
2022-09-06T10:44:56.334Z,2.55
2022-09-06T10:47:30.643Z,2.55
2022-09-06T10:50:00.159Z,2.42
2022-09-06T10:52:38.433Z,2.67
2022-09-06T10:55:07.521Z,2.60
2022-09-06T11:00:32.497Z,2.63
2022-09-06T11:06:04.329Z,2.33
2022-09-06T11:08:48.345Z,2.13
2022-09-06T11:11:20.815Z,2.65
2022-09-06T11:13:48.460Z,3.10
2022-09-06T11:16:23.368Z,2.80
2022-09-06T11:18:58.244Z,2.45
2022-09-06T11:21:44.064Z,2.70
2022-09-06T11:24:17.128Z,3.00
2022-09-06T11:26:58.652Z,2.90
2022-09-06T11:29:28.300Z,2.63
2022-09-06T11:32:17.049Z,2.55
2022-09-06T11:34:57.919Z,2.53
2022-09-06T11:37:30.833Z,2.40
2022-09-06T11:42:59.385Z,2.50
2022-09-06T11:45:45.658Z,2.20
2022-09-06T11:48:34.114Z,2.50
2022-09-06T11:51:07.777Z,2.33
2022-09-06T11:53:58.150Z,2.50
2022-09-06T11:56:30.804Z,2.25
2022-09-06T11:59:03.663Z,2.10
2022-09-06T12:01:30.923Z,2.42
2022-09-06T12:04:06.899Z,2.30
2022-09-06T12:07:18.026Z,2.40
2022-09-06T12:09:46.308Z,2.45
2022-09-06T12:12:46.735Z,2.92
2022-09-06T12:15:27.638Z,2.47
2022-09-06T12:17:57.539Z,2.45
2022-09-06T12:20:54.909Z,2.28
2022-09-06T12:23:37.563Z,2.58
2022-09-06T12:28:37.791Z,2.78
2022-09-06T12:31:27.879Z,3.03
2022-09-06T12:33:56.844Z,2.80
2022-09-06T12:36:29.731Z,2.78
2022-09-06T12:39:14.500Z,2.55
2022-09-06T12:41:50.899Z,3.17
2022-09-06T12:44:30.552Z,2.72
2022-09-06T12:47:04.301Z,3.03
2022-09-06T12:49:34.450Z,2.97
2022-09-06T12:52:07.945Z,2.72
2022-09-06T12:55:01.824Z,2.97
2022-09-06T12:57:34.183Z,2.72
2022-09-06T13:00:03.175Z,3.05
2022-09-06T13:02:44.969Z,2.75
2022-09-06T13:05:14.710Z,2.42
2022-09-06T13:07:47.103Z,2.60
2022-09-06T13:10:16.740Z,2.45
2022-09-06T13:12:48.096Z,3.03
2022-09-06T13:15:29.891Z,3.30
2022-09-06T13:18:38.443Z,3.00
2022-09-06T13:21:08.899Z,2.60
2022-09-06T13:23:45.176Z,2.83
2022-09-06T13:26:12.903Z,3.33
2022-09-06T13:28:42.160Z,2.70
2022-09-06T13:31:32.412Z,3.33
2022-09-06T13:34:00.710Z,3.05
2022-09-06T13:36:31.288Z,2.83
2022-09-06T13:39:00.526Z,3.13
2022-09-06T13:41:35.719Z,2.92
2022-09-06T13:46:38.546Z,3.38
2022-09-06T13:49:06.319Z,3.45
2022-09-06T13:51:34.751Z,3.08
2022-09-06T13:54:09.754Z,3.45
2022-09-06T13:56:37.785Z,2.95
2022-09-06T13:59:06.029Z,3.28
2022-09-06T14:01:34.418Z,2.95
2022-09-06T14:04:02.454Z,2.90
2022-09-06T14:06:32.463Z,2.95
2022-09-06T14:09:07.233Z,3.55
2022-09-06T14:11:35.733Z,3.38
2022-09-06T14:14:06.704Z,2.97
2022-09-06T14:16:36.767Z,2.83
2022-09-06T14:19:05.346Z,3.33
2022-09-06T14:21:38.746Z,2.90
2022-09-06T14:24:09.895Z,3.22
2022-09-06T14:27:20.523Z,3.10
2022-09-06T14:29:48.621Z,3.25
2022-09-06T14:32:19.311Z,2.85
2022-09-06T14:34:52.628Z,3.15
2022-09-06T14:37:21.696Z,3.28
2022-09-06T14:39:52.147Z,2.63
2022-09-06T14:42:20.777Z,2.83
2022-09-06T14:44:49.037Z,3.40
2022-09-06T14:50:02.155Z,2.78
2022-09-06T14:52:32.331Z,3.17
2022-09-06T14:55:00.320Z,2.90
2022-09-06T14:57:32.361Z,3.00
2022-09-06T15:00:06.856Z,2.83
2022-09-06T15:02:35.272Z,3.22
2022-09-06T15:05:02.983Z,3.00
2022-09-06T15:07:31.379Z,2.70
2022-09-06T15:10:00.364Z,2.78
2022-09-06T15:12:30.668Z,2.83
2022-09-06T15:14:58.056Z,2.83
2022-09-06T15:17:25.511Z,2.85
2022-09-06T15:19:56.920Z,2.70
2022-09-06T15:22:24.452Z,2.90
2022-09-06T15:24:54.697Z,2.78
2022-09-06T15:27:23.450Z,2.70
2022-09-06T15:29:54.095Z,2.92
2022-09-06T15:32:23.077Z,4.03
2022-09-06T15:34:50.433Z,3.00
2022-09-06T15:37:20.794Z,2.60
2022-09-06T15:39:48.405Z,3.08
2022-09-06T15:42:15.998Z,4.20
2022-09-06T15:44:44.797Z,2.72
2022-09-06T15:47:13.591Z,2.97
2022-09-06T15:49:44.785Z,3.08
2022-09-06T15:52:13.007Z,3.30
2022-09-06T15:55:00.678Z,4.00
2022-09-06T15:57:28.919Z,2.97
2022-09-06T15:59:57.105Z,2.88
2022-09-06T16:02:24.442Z,3.88
2022-09-06T16:04:51.996Z,2.97
2022-09-06T16:07:19.680Z,3.00
2022-09-06T16:09:47.257Z,3.28
2022-09-06T16:12:14.970Z,3.28
2022-09-06T16:14:42.943Z,2.85
2022-09-06T16:17:12.708Z,3.00
2022-09-06T16:19:40.541Z,2.80
2022-09-06T16:22:07.790Z,3.22
2022-09-06T16:24:35.315Z,2.78
2022-09-06T16:27:34.431Z,2.53
2022-09-06T16:30:09.332Z,3.40
2022-09-06T16:32:39.193Z,3.28
2022-09-06T16:35:09.964Z,2.70
2022-09-06T16:37:37.346Z,2.53
2022-09-06T16:40:06.199Z,2.92
2022-09-06T16:42:37.182Z,3.38
2022-09-06T16:45:05.358Z,3.50
2022-09-06T16:47:32.748Z,3.20
2022-09-06T16:50:00.537Z,4.13
2022-09-06T16:52:27.969Z,3.88
2022-09-06T16:55:25.535Z,5.85
2022-09-06T16:57:51.247Z,4.40
2022-09-06T17:00:21.907Z,3.53
2022-09-06T17:02:50.399Z,3.30
2022-09-06T17:09:43.192Z,3.80
2022-09-06T17:12:16.560Z,3.00
2022-09-06T17:14:44.634Z,2.97
2022-09-06T17:17:14.526Z,2.85
2022-09-06T17:19:42.068Z,2.78
2022-09-06T17:22:10.724Z,2.58
2022-09-06T17:24:39.077Z,2.50
2022-09-06T17:27:06.864Z,3.10
2022-09-06T17:29:37.192Z,2.92
2022-09-06T17:32:10.211Z,2.80
2022-09-06T17:34:38.945Z,2.58
2022-09-06T17:37:09.009Z,2.92
2022-09-06T17:39:36.742Z,2.78
2022-09-06T17:42:07.339Z,2.40
2022-09-06T17:44:37.114Z,3.30
2022-09-06T17:47:13.680Z,3.10
2022-09-06T17:49:42.673Z,2.97
2022-09-06T17:52:12.830Z,2.35
2022-09-06T17:54:40.195Z,2.97
2022-09-06T17:57:08.530Z,2.40
2022-09-06T17:59:36.391Z,2.60
2022-09-06T18:02:04.582Z,2.38
2022-09-06T18:04:33.498Z,2.05
2022-09-06T18:07:08.389Z,2.40
2022-09-06T18:09:38.594Z,3.38
2022-09-06T18:12:19.687Z,2.50
2022-09-06T18:14:47.640Z,2.15
2022-09-06T18:17:18.130Z,3.10
2022-09-06T18:19:45.575Z,2.42
2022-09-06T18:22:17.423Z,2.80
2022-09-06T18:24:47.882Z,2.53
2022-09-06T18:27:16.757Z,3.08
2022-09-06T18:29:44.275Z,2.90
2022-09-06T18:32:12.951Z,2.70
2022-09-06T18:34:41.792Z,2.63
2022-09-06T18:37:09.743Z,2.22
2022-09-06T18:39:46.657Z,2.40
2022-09-06T18:46:04.227Z,2.42
2022-09-06T18:49:27.433Z,2.40
2022-09-06T20:44:12.441Z,2.10
2022-09-06T23:47:46.508Z,1.70
